createdAt,value
2018-09-23T00:01:41.656Z,64.35
2018-09-23T00:04:15.247Z,64.00
2018-09-23T00:06:48.924Z,63.81
2018-09-23T00:09:22.548Z,64.24
2018-09-23T00:11:56.174Z,64.12
2018-09-23T00:14:29.754Z,64.30
2018-09-23T00:17:03.321Z,64.30
2018-09-23T00:19:37.007Z,64.11
2018-09-23T00:22:10.682Z,64.66
2018-09-23T00:24:44.361Z,64.31
2018-09-23T00:27:17.915Z,64.25
2018-09-23T00:29:52.373Z,64.64
2018-09-23T00:32:26.321Z,64.79
2018-09-23T00:34:59.902Z,64.60
2018-09-23T00:37:33.507Z,64.65
2018-09-23T00:40:07.222Z,64.66
2018-09-23T00:42:40.791Z,64.87
2018-09-23T00:45:14.498Z,64.74
2018-09-23T00:47:48.079Z,64.36
2018-09-23T00:50:21.655Z,64.43
2018-09-23T00:52:55.212Z,64.25
2018-09-23T00:55:28.803Z,64.39
2018-09-23T00:58:02.410Z,63.88
2018-09-23T01:00:36.052Z,64.10
2018-09-23T01:03:09.717Z,63.71
2018-09-23T01:05:43.351Z,63.55
2018-09-23T01:08:16.918Z,63.93
2018-09-23T01:10:50.629Z,63.39
2018-09-23T01:13:24.349Z,63.72
2018-09-23T01:15:57.939Z,63.37
2018-09-23T01:18:31.561Z,63.45
2018-09-23T01:21:05.159Z,63.24
2018-09-23T01:23:38.768Z,63.60
2018-09-23T01:26:12.701Z,63.51
2018-09-23T01:28:46.419Z,63.85
2018-09-23T01:31:20.017Z,63.71
2018-09-23T01:33:53.635Z,63.44
2018-09-23T01:36:27.632Z,63.96
2018-09-23T01:39:01.196Z,63.94
2018-09-23T01:41:34.759Z,63.58
2018-09-23T01:44:08.348Z,63.67
2018-09-23T01:46:41.896Z,63.43
2018-09-23T01:49:15.664Z,63.66
2018-09-23T01:51:49.214Z,63.84
2018-09-23T01:54:22.793Z,63.92
2018-09-23T01:56:56.324Z,63.98
2018-09-23T01:59:29.896Z,63.39
2018-09-23T02:02:03.450Z,63.71
2018-09-23T02:04:37.085Z,63.76
2018-09-23T02:07:10.652Z,63.86
2018-09-23T02:09:44.236Z,63.79
2018-09-23T02:12:17.827Z,63.88
2018-09-23T02:14:51.392Z,63.81
2018-09-23T02:17:24.967Z,63.57
2018-09-23T02:19:59.022Z,63.65
2018-09-23T02:22:32.595Z,63.47
2018-09-23T02:25:06.326Z,63.41
2018-09-23T02:27:39.861Z,63.54
2018-09-23T02:30:13.465Z,63.24
2018-09-23T02:32:47.022Z,63.33
2018-09-23T02:35:22.391Z,63.06
2018-09-23T02:37:56.200Z,63.26
2018-09-23T02:40:29.790Z,63.40
2018-09-23T02:43:03.395Z,63.77
2018-09-23T02:45:36.995Z,63.49
2018-09-23T02:48:10.625Z,63.78
2018-09-23T02:50:44.355Z,63.64
2018-09-23T02:53:17.889Z,63.69
2018-09-23T02:55:54.318Z,63.53
2018-09-23T02:58:27.867Z,63.27
2018-09-23T03:01:01.524Z,63.18
2018-09-23T03:03:35.102Z,63.30
2018-09-23T03:06:08.787Z,62.75
2018-09-23T03:08:42.344Z,62.92
2018-09-23T03:11:15.963Z,63.15
2018-09-23T03:13:49.491Z,63.30
2018-09-23T03:16:23.236Z,63.12
2018-09-23T03:18:56.807Z,63.16
2018-09-23T03:21:30.368Z,62.98
2018-09-23T03:24:04.010Z,62.80
2018-09-23T03:26:37.694Z,62.87
2018-09-23T03:29:11.295Z,62.81
2018-09-23T03:31:45.007Z,63.19
2018-09-23T03:34:18.612Z,63.07
2018-09-23T03:36:52.233Z,62.93
2018-09-23T03:39:25.900Z,63.24
2018-09-23T03:41:59.487Z,62.89
2018-09-23T03:44:33.052Z,63.11
2018-09-23T03:47:06.682Z,62.86
2018-09-23T03:49:40.308Z,62.86
2018-09-23T03:52:13.938Z,62.81
2018-09-23T03:54:47.505Z,63.23
2018-09-23T03:57:21.100Z,63.18
2018-09-23T03:59:54.705Z,63.09
2018-09-23T04:02:28.310Z,63.13
2018-09-23T04:05:01.863Z,63.16
2018-09-23T04:07:35.441Z,63.01
2018-09-23T04:10:09.075Z,62.81
2018-09-23T04:12:42.681Z,62.84
2018-09-23T04:15:16.388Z,62.83
2018-09-23T04:17:49.970Z,63.17
2018-09-23T04:20:23.552Z,62.94
2018-09-23T04:22:57.114Z,62.78
2018-09-23T04:25:30.673Z,63.06
2018-09-23T04:28:04.244Z,63.05
2018-09-23T04:30:37.819Z,62.98
2018-09-23T04:33:11.447Z,62.75
2018-09-23T04:35:45.012Z,62.87
2018-09-23T04:38:18.588Z,62.82
2018-09-23T04:40:52.269Z,63.25
2018-09-23T04:43:25.818Z,62.93
2018-09-23T04:45:59.390Z,62.72
2018-09-23T04:48:32.997Z,63.01
2018-09-23T04:51:06.624Z,63.34
2018-09-23T04:53:40.208Z,63.19
2018-09-23T04:56:13.764Z,63.37
2018-09-23T04:58:47.429Z,62.77
2018-09-23T05:01:21.062Z,62.94
2018-09-23T05:03:54.670Z,62.60
2018-09-23T05:06:28.602Z,62.88
2018-09-23T05:09:02.209Z,62.73
2018-09-23T05:11:35.805Z,62.77
2018-09-23T05:14:09.511Z,63.02
2018-09-23T05:16:43.105Z,62.75
2018-09-23T05:19:16.744Z,62.66
2018-09-23T05:21:50.384Z,62.69
2018-09-23T05:24:23.981Z,62.81
2018-09-23T05:26:57.647Z,62.72
2018-09-23T05:29:31.241Z,63.14
2018-09-23T05:32:04.834Z,62.74
2018-09-23T05:34:38.508Z,63.01
2018-09-23T05:37:12.096Z,63.05
2018-09-23T05:39:45.662Z,62.70
2018-09-23T05:42:19.315Z,62.75
2018-09-23T05:44:52.940Z,62.84
2018-09-23T05:47:26.540Z,62.54
2018-09-23T05:50:00.141Z,62.47
2018-09-23T05:52:33.751Z,62.32
2018-09-23T05:55:07.398Z,62.81
2018-09-23T05:57:40.959Z,62.38
2018-09-23T06:00:15.260Z,62.57
2018-09-23T06:02:48.860Z,62.51
2018-09-23T06:05:22.435Z,62.52
2018-09-23T06:07:56.026Z,62.19
2018-09-23T06:10:29.567Z,62.25
2018-09-23T06:13:03.164Z,62.36
2018-09-23T06:15:36.846Z,62.36
2018-09-23T06:18:10.520Z,62.25
2018-09-23T06:20:44.115Z,62.20
2018-09-23T06:23:17.713Z,62.66
2018-09-23T06:25:51.269Z,62.32
2018-09-23T06:28:24.866Z,62.07
2018-09-23T06:30:58.445Z,62.08
2018-09-23T06:33:32.171Z,62.26
2018-09-23T06:36:05.956Z,61.79
2018-09-23T06:38:39.553Z,61.85
2018-09-23T06:41:13.327Z,61.78
2018-09-23T06:43:46.993Z,62.08
2018-09-23T06:46:20.557Z,61.87
2018-09-23T06:48:54.140Z,62.07
2018-09-23T06:51:27.732Z,62.24
2018-09-23T06:54:01.315Z,62.05
2018-09-23T06:56:34.875Z,61.73
2018-09-23T06:59:08.925Z,62.05
2018-09-23T07:01:42.514Z,61.67
2018-09-23T07:04:16.091Z,61.58
2018-09-23T07:06:49.659Z,61.89
2018-09-23T07:09:23.250Z,61.49
2018-09-23T07:11:56.856Z,61.42
2018-09-23T07:14:30.493Z,60.85
2018-09-23T07:17:04.131Z,60.83
2018-09-23T07:19:37.717Z,61.63
2018-09-23T07:22:11.366Z,61.45
2018-09-23T07:24:44.965Z,61.38
2018-09-23T07:27:18.576Z,61.25
2018-09-23T07:29:52.214Z,60.53
2018-09-23T07:32:25.775Z,60.17
2018-09-23T07:34:59.304Z,60.26
2018-09-23T07:37:32.860Z,60.22
2018-09-23T07:40:06.558Z,59.72
2018-09-23T07:42:40.145Z,60.20
2018-09-23T07:45:13.734Z,59.83
2018-09-23T07:47:47.276Z,59.79
2018-09-23T07:50:20.898Z,59.98
2018-09-23T07:52:54.551Z,60.03
2018-09-23T07:55:28.175Z,59.20
2018-09-23T07:58:01.745Z,59.19
2018-09-23T08:00:35.341Z,59.12
2018-09-23T08:03:08.935Z,58.62
2018-09-23T08:05:42.501Z,58.40
2018-09-23T08:08:16.067Z,58.53
2018-09-23T08:10:49.767Z,58.55
2018-09-23T08:13:23.561Z,58.62
2018-09-23T08:15:57.066Z,58.47
2018-09-23T08:18:30.919Z,58.09
2018-09-23T08:21:04.543Z,58.38
2018-09-23T08:23:38.170Z,57.81
2018-09-23T08:26:11.770Z,57.86
2018-09-23T08:28:45.342Z,57.62
2018-09-23T08:31:18.938Z,57.32
2018-09-23T08:33:53.648Z,56.93
2018-09-23T08:36:27.231Z,57.15
2018-09-23T08:39:00.798Z,56.99
2018-09-23T08:41:34.405Z,56.93
2018-09-23T08:44:08.110Z,56.19
2018-09-23T08:46:41.709Z,56.49
2018-09-23T08:49:15.289Z,56.95
2018-09-23T08:51:48.951Z,56.36
2018-09-23T08:54:22.515Z,55.90
2018-09-23T08:56:56.107Z,56.63
2018-09-23T08:59:29.813Z,56.62
2018-09-23T09:02:03.415Z,56.49
2018-09-23T09:04:37.014Z,55.59
2018-09-23T09:07:10.549Z,55.91
2018-09-23T09:09:44.133Z,56.35
2018-09-23T09:12:17.790Z,56.08
2018-09-23T09:14:51.375Z,55.01
2018-09-23T09:17:24.920Z,55.12
2018-09-23T09:19:58.493Z,55.50
2018-09-23T09:22:32.102Z,54.52
2018-09-23T09:25:05.717Z,53.54
2018-09-23T09:27:39.281Z,55.13
2018-09-23T09:30:12.891Z,54.40
2018-09-23T09:32:46.400Z,54.81
2018-09-23T09:35:19.991Z,54.31
2018-09-23T09:37:53.531Z,54.08
2018-09-23T09:40:27.451Z,53.55
2018-09-23T09:43:01.042Z,54.25
2018-09-23T09:45:34.799Z,53.33
2018-09-23T09:48:09.124Z,52.95
2018-09-23T09:50:42.801Z,53.92
2018-09-23T09:53:16.355Z,53.64
2018-09-23T09:55:49.922Z,53.91
2018-09-23T09:58:23.439Z,53.16
2018-09-23T10:00:57.147Z,53.58
2018-09-23T10:03:30.760Z,53.43
2018-09-23T10:06:04.368Z,53.55
2018-09-23T10:08:38.049Z,53.50
2018-09-23T10:11:11.753Z,53.25
2018-09-23T10:13:45.599Z,52.80
2018-09-23T10:16:19.217Z,52.85
2018-09-23T10:18:55.974Z,52.14
2018-09-23T10:21:30.254Z,52.69
2018-09-23T10:24:05.057Z,51.67
2018-09-23T10:26:39.067Z,52.05
2018-09-23T10:29:13.265Z,52.97
2018-09-23T10:31:47.335Z,53.14
2018-09-23T10:34:20.976Z,52.70
2018-09-23T10:36:54.711Z,52.78
2018-09-23T10:39:28.943Z,52.59
2018-09-23T10:42:03.265Z,52.17
2018-09-23T10:44:36.807Z,52.75
2018-09-23T10:47:10.490Z,52.51
2018-09-23T10:49:44.077Z,52.89
2018-09-23T10:52:17.743Z,52.91
2018-09-23T10:54:51.705Z,52.51
2018-09-23T10:57:25.306Z,53.33
2018-09-23T11:00:00.519Z,52.95
2018-09-23T11:02:34.092Z,52.61
2018-09-23T11:05:08.275Z,52.86
2018-09-23T11:07:41.843Z,53.27
2018-09-23T11:10:15.526Z,52.60
2018-09-23T11:12:49.198Z,53.59
2018-09-23T11:15:24.092Z,53.83
2018-09-23T11:17:57.937Z,53.43
2018-09-23T11:20:31.718Z,53.79
2018-09-23T11:23:07.317Z,53.70
2018-09-23T11:25:40.895Z,54.01
2018-09-23T11:28:14.762Z,54.21
2018-09-23T11:30:49.331Z,54.16
2018-09-23T11:33:22.960Z,54.53
2018-09-23T11:35:56.642Z,54.86
2018-09-23T11:38:30.232Z,55.61
2018-09-23T11:41:09.015Z,56.01
2018-09-23T11:43:42.898Z,56.46
2018-09-23T11:46:16.459Z,56.73
2018-09-23T11:48:50.096Z,57.26
2018-09-23T11:51:23.670Z,57.14
2018-09-23T11:53:57.240Z,57.76
2018-09-23T11:56:30.785Z,58.52
2018-09-23T11:59:04.491Z,58.85
2018-09-23T12:01:37.997Z,59.31
2018-09-23T12:04:11.615Z,59.70
2018-09-23T12:06:45.159Z,59.64
2018-09-23T12:09:18.842Z,60.12
2018-09-23T12:11:52.543Z,60.01
2018-09-23T12:14:26.037Z,60.06
2018-09-23T12:17:00.668Z,60.50
2018-09-23T12:19:34.211Z,61.00
2018-09-23T12:22:07.787Z,61.14
2018-09-23T12:24:41.337Z,61.23
2018-09-23T12:27:14.906Z,61.76
2018-09-23T12:29:48.553Z,61.95
2018-09-23T12:32:22.143Z,62.43
2018-09-23T12:34:55.678Z,62.75
2018-09-23T12:37:29.231Z,62.64
2018-09-23T12:40:02.839Z,62.66
2018-09-23T12:42:36.369Z,62.88
2018-09-23T12:45:10.936Z,63.22
2018-09-23T12:47:44.705Z,62.39
2018-09-23T12:50:18.350Z,61.68
2018-09-23T12:52:52.010Z,61.54
2018-09-23T12:55:25.572Z,62.45
2018-09-23T12:58:00.255Z,62.43
2018-09-23T13:00:33.796Z,62.55
2018-09-23T13:03:07.418Z,62.98
2018-09-23T13:05:41.015Z,63.09
2018-09-23T13:08:14.576Z,63.67
2018-09-23T13:10:48.175Z,63.57
2018-09-23T13:13:21.766Z,63.60
2018-09-23T13:15:55.365Z,63.46
2018-09-23T13:18:29.058Z,63.68
2018-09-23T13:21:02.690Z,64.23
2018-09-23T13:23:36.260Z,64.44
2018-09-23T13:26:09.811Z,64.88
2018-09-23T13:28:43.447Z,65.06
2018-09-23T13:31:17.258Z,65.35
2018-09-23T13:33:50.866Z,65.89
2018-09-23T13:36:24.467Z,65.94
2018-09-23T13:38:58.050Z,65.97
2018-09-23T13:41:31.591Z,65.54
2018-09-23T13:44:05.188Z,65.78
2018-09-23T13:46:38.889Z,66.69
2018-09-23T13:49:12.476Z,66.92
2018-09-23T13:51:46.021Z,67.16
2018-09-23T13:54:19.687Z,67.28
2018-09-23T13:56:53.234Z,67.51
2018-09-23T13:59:26.812Z,67.69
2018-09-23T14:02:00.522Z,67.78
2018-09-23T14:04:34.099Z,68.00
2018-09-23T14:07:07.724Z,68.29
2018-09-23T14:09:41.324Z,68.32
2018-09-23T14:12:14.948Z,68.32
2018-09-23T14:14:48.504Z,68.05
2018-09-23T14:17:22.097Z,68.07
2018-09-23T14:19:56.259Z,68.02
2018-09-23T14:22:29.911Z,68.38
2018-09-23T14:25:03.502Z,68.01
2018-09-23T14:27:37.063Z,67.64
2018-09-23T14:30:10.655Z,67.52
2018-09-23T14:32:44.210Z,68.03
2018-09-23T14:35:17.818Z,68.09
2018-09-23T14:37:51.367Z,68.01
2018-09-23T14:40:24.926Z,67.97
2018-09-23T14:42:58.556Z,68.17
2018-09-23T14:45:32.150Z,68.46
2018-09-23T14:48:05.795Z,68.43
2018-09-23T14:50:39.415Z,68.18
2018-09-23T14:53:12.976Z,68.58
2018-09-23T14:55:46.620Z,68.66
2018-09-23T14:58:20.233Z,68.77
2018-09-23T15:00:54.068Z,68.74
2018-09-23T15:03:27.702Z,68.59
2018-09-23T15:06:01.284Z,68.73
2018-09-23T15:08:34.857Z,69.09
2018-09-23T15:11:08.447Z,69.21
2018-09-23T15:13:42.029Z,69.24
2018-09-23T15:16:15.627Z,69.38
2018-09-23T15:18:49.203Z,69.58
2018-09-23T15:21:22.773Z,69.22
2018-09-23T15:23:56.357Z,69.77
2018-09-23T15:26:29.951Z,69.66
2018-09-23T15:29:03.571Z,69.54
2018-09-23T15:31:37.170Z,69.77
2018-09-23T15:34:10.773Z,69.79
2018-09-23T15:36:44.391Z,69.46
2018-09-23T15:39:18.027Z,69.70
2018-09-23T15:41:51.603Z,69.70
2018-09-23T15:44:25.288Z,69.42
2018-09-23T15:46:58.861Z,69.75
2018-09-23T15:49:32.476Z,69.71
2018-09-23T15:52:06.176Z,69.44
2018-09-23T15:54:39.770Z,69.43
2018-09-23T15:57:13.355Z,69.48
2018-09-23T15:59:46.929Z,69.10
2018-09-23T16:02:20.494Z,69.31
2018-09-23T16:04:54.057Z,69.20
2018-09-23T16:07:27.681Z,69.20
2018-09-23T16:10:04.328Z,69.13
2018-09-23T16:12:37.936Z,69.26
2018-09-23T16:15:11.599Z,69.44
2018-09-23T16:17:45.188Z,69.52
2018-09-23T16:20:18.807Z,69.40
2018-09-23T16:22:52.413Z,69.31
2018-09-23T16:25:26.010Z,69.63
2018-09-23T16:27:59.604Z,69.73
2018-09-23T16:30:33.194Z,69.70
2018-09-23T16:33:06.778Z,69.73
2018-09-23T16:35:40.372Z,70.00
2018-09-23T16:38:13.927Z,69.79
2018-09-23T16:40:47.510Z,70.24
2018-09-23T16:43:21.139Z,69.90
2018-09-23T16:45:54.724Z,70.35
2018-09-23T16:48:28.361Z,70.13
2018-09-23T16:51:01.936Z,70.11
2018-09-23T16:53:35.496Z,70.10
2018-09-23T16:56:09.082Z,70.35
2018-09-23T16:58:42.634Z,70.56
2018-09-23T17:01:16.214Z,70.28
2018-09-23T17:03:49.796Z,70.43
2018-09-23T17:06:23.628Z,70.14
2018-09-23T17:08:57.254Z,70.32
2018-09-23T17:11:30.870Z,70.33
2018-09-23T17:14:05.153Z,70.47
2018-09-23T17:16:39.913Z,70.65
2018-09-23T17:19:14.347Z,70.61
2018-09-23T17:21:48.458Z,70.26
2018-09-23T17:24:22.673Z,70.54
2018-09-23T17:26:56.728Z,70.46
2018-09-23T17:29:30.955Z,70.46
2018-09-23T17:32:05.163Z,70.57
2018-09-23T17:34:39.186Z,70.23
2018-09-23T17:37:13.226Z,70.42
2018-09-23T17:39:47.418Z,70.27
2018-09-23T17:42:21.322Z,70.49
2018-09-23T17:44:55.338Z,70.62
2018-09-23T17:47:29.471Z,70.38
2018-09-23T17:50:03.725Z,70.55
2018-09-23T17:52:38.137Z,70.46
2018-09-23T17:55:12.176Z,70.34
2018-09-23T17:57:46.388Z,70.25
2018-09-23T18:00:20.384Z,70.45
2018-09-23T18:02:54.603Z,70.63
2018-09-23T18:05:28.689Z,70.39
2018-09-23T18:08:02.832Z,70.23
2018-09-23T18:10:36.924Z,70.53
2018-09-23T18:13:11.037Z,70.45
2018-09-23T18:15:45.035Z,70.45
2018-09-23T18:18:19.843Z,70.69
2018-09-23T18:20:54.541Z,70.54
2018-09-23T18:23:28.682Z,70.37
2018-09-23T18:26:02.760Z,70.46
2018-09-23T18:28:36.861Z,70.62
2018-09-23T18:31:11.015Z,70.32
2018-09-23T18:33:44.932Z,70.38
2018-09-23T18:36:19.115Z,70.79
2018-09-23T18:38:53.051Z,70.76
2018-09-23T18:41:28.330Z,70.55
2018-09-23T18:44:02.543Z,70.69
2018-09-23T18:46:38.438Z,70.40
2018-09-23T18:49:12.542Z,70.99
2018-09-23T18:51:46.651Z,70.58
2018-09-23T18:55:24.488Z,70.56
2018-09-23T18:57:58.705Z,70.49
2018-09-23T19:00:32.768Z,70.46
2018-09-23T19:03:06.792Z,70.49
2018-09-23T19:05:40.836Z,70.90
2018-09-23T19:08:15.159Z,70.56
2018-09-23T19:10:49.184Z,70.38
2018-09-23T19:13:28.317Z,70.84
2018-09-23T19:16:07.166Z,70.62
2018-09-23T19:18:41.304Z,70.36
2018-09-23T19:21:16.177Z,70.63
2018-09-23T19:23:50.181Z,70.67
2018-09-23T19:26:24.430Z,70.35
2018-09-23T19:28:58.892Z,70.53
2018-09-23T19:31:32.894Z,70.70
2018-09-23T19:34:07.144Z,70.72
2018-09-23T19:36:41.244Z,70.72
2018-09-23T19:39:15.474Z,70.51
2018-09-23T19:41:49.546Z,70.57
2018-09-23T19:44:23.643Z,70.60
2018-09-23T19:46:58.231Z,70.80
2018-09-23T19:49:32.152Z,70.64
2018-09-23T19:52:06.210Z,70.82
2018-09-23T19:54:40.369Z,70.85
2018-09-23T19:57:14.510Z,70.87
2018-09-23T19:59:48.458Z,70.73
2018-09-23T20:02:22.522Z,70.64
2018-09-23T20:04:56.660Z,70.88
2018-09-23T20:07:30.803Z,70.55
2018-09-23T20:10:04.927Z,70.76
2018-09-23T20:12:39.098Z,70.53
2018-09-23T20:15:15.003Z,70.77
2018-09-23T20:17:49.191Z,70.99
2018-09-23T20:20:23.809Z,70.89
2018-09-23T20:22:58.087Z,70.79
2018-09-23T20:25:32.074Z,70.93
2018-09-23T20:28:06.439Z,70.53
2018-09-23T20:30:40.360Z,70.55
2018-09-23T20:33:14.572Z,70.56
2018-09-23T20:35:48.544Z,70.50
2018-09-23T20:38:22.655Z,70.48
2018-09-23T20:40:56.845Z,70.49
2018-09-23T20:43:30.962Z,70.58
2018-09-23T20:46:04.989Z,70.53
2018-09-23T20:48:39.137Z,70.32
2018-09-23T20:51:13.403Z,70.66
2018-09-23T20:53:47.732Z,70.48
2018-09-23T20:56:22.142Z,70.25
2018-09-23T20:58:56.312Z,70.41
2018-09-23T21:01:31.088Z,69.83
2018-09-23T21:04:06.141Z,70.22
2018-09-23T21:06:40.929Z,70.28
2018-09-23T21:09:15.536Z,70.24
2018-09-23T21:11:50.293Z,70.29
2018-09-23T21:14:26.060Z,70.31
2018-09-23T21:17:01.394Z,70.76
2018-09-23T21:19:36.688Z,70.26
2018-09-23T21:22:12.044Z,70.57
2018-09-23T21:24:47.358Z,70.17
2018-09-23T21:27:23.283Z,70.25
2018-09-23T21:29:58.177Z,70.61
2018-09-23T21:32:33.178Z,70.33
2018-09-23T21:35:08.867Z,70.32
2018-09-23T21:37:43.858Z,70.17
2018-09-23T21:40:17.457Z,70.24
2018-09-23T21:42:51.117Z,70.36
2018-09-23T21:45:24.690Z,70.17
2018-09-23T21:47:58.241Z,70.49
2018-09-23T21:50:31.802Z,70.31
2018-09-23T21:53:06.597Z,70.46
2018-09-23T21:55:41.377Z,70.57
2018-09-23T21:58:16.168Z,70.52
2018-09-23T22:00:51.200Z,70.44
2018-09-23T22:03:24.963Z,70.25
2018-09-23T22:05:59.835Z,70.37
2018-09-23T22:08:35.257Z,70.49
2018-09-23T22:11:11.053Z,70.84
2018-09-23T22:13:45.850Z,70.63
2018-09-23T22:16:22.633Z,70.58
2018-09-23T22:18:58.022Z,70.72
2018-09-23T22:21:32.967Z,70.48
2018-09-23T22:24:07.970Z,70.71
2018-09-23T22:26:42.919Z,70.66
2018-09-23T22:29:17.599Z,70.84
2018-09-23T22:31:52.269Z,70.87
2018-09-23T22:34:27.668Z,70.92
2018-09-23T22:37:02.682Z,71.35
2018-09-23T22:39:37.553Z,71.05
2018-09-23T22:42:12.497Z,71.17
2018-09-23T22:44:47.363Z,71.29
2018-09-23T22:47:21.994Z,71.21
2018-09-23T22:49:57.049Z,70.99
2018-09-23T22:52:35.677Z,70.91
2018-09-23T22:55:11.378Z,70.94
2018-09-23T22:57:47.067Z,70.74
2018-09-23T23:00:22.225Z,70.96
2018-09-23T23:02:56.499Z,70.64
2018-09-23T23:05:31.345Z,70.76
2018-09-23T23:08:06.008Z,70.51
2018-09-23T23:10:40.890Z,70.58
2018-09-23T23:13:15.740Z,70.64
2018-09-23T23:15:52.065Z,70.58
2018-09-23T23:18:27.620Z,70.92
2018-09-23T23:21:03.904Z,70.55
2018-09-23T23:23:39.849Z,70.76
2018-09-23T23:26:14.698Z,70.46
2018-09-23T23:28:49.464Z,70.70
2018-09-23T23:31:25.109Z,70.71
2018-09-23T23:33:59.878Z,70.84
2018-09-23T23:36:34.652Z,70.97
2018-09-23T23:39:11.072Z,71.18
2018-09-23T23:41:46.000Z,70.75
2018-09-23T23:44:21.574Z,70.63
2018-09-23T23:46:56.495Z,70.88
2018-09-23T23:49:31.552Z,70.72
2018-09-23T23:52:06.359Z,70.73
2018-09-23T23:54:41.666Z,70.96
2018-09-23T23:57:16.648Z,70.79
2018-09-23T23:59:51.541Z,71.07
